バンコク/スワンナプーム の空港の天気 - METARとTAF

スワンナプーム国際空港 ( VTBS / BKK ) - タイ サムットプラーカーン県 (バンコク近郊)
飛行場実況気象(Metar)
観測時間02/17 21:30 ICT (02/17 14:30 UTC)
風向・風速南南西 5m/s
視程10km以上
天気現象
少しの雲 雲底高度 610m
気温27℃
湿度79%
気圧1011hPa
METARVTBS 171430Z 20009KT 9999 FEW020 27/23 Q1011 NOSIG
過去の天気等 Google飛行場航空写真 Wunderground天気予報

過去48時間のMETAR

飛行場予報(TAF)
発表時間: 2/17 18:00 ICT (2/17 11:00 UTC)
予報対象時間: 17日19時 ICT ~ 19日1時 ICT
風向・風速南南西 4m/s
視程9000m
少しの雲 雲底高度 610m
18日4時 ICT ~ 18日6時 ICT に徐々に
風向・風速南東 3m/s
視程7000m
18日12時 ICT ~ 18日17時 ICT に一時的に
風向・風速不定 8m/s
視程5000m
天気現象雷雨
少しの積乱雲 雲底高度 610m
全天の4割程度の雲 雲底高度 910m
18日17時 ICT ~ 18日19時 ICT に徐々に
風向・風速南南西 4m/s
視程10km以上
TAF VTBS 171100Z 1712/1818 21008KT 9000 FEW020
BECMG 1721/1723 14005KT 7000
TEMPO 1805/1810 VRB15KT 5000 TSRA FEW020CB SCT030
BECMG 1810/1812 21008KT 9999